Ellsworth, Wisconsin
Current Conditions -  °F | °C
As of 2:31 AM on Friday 19 Dec 2014 (Local Time) from KRGK Reporting Station
Overcast Overcast  
Wind Chill: 23°   Ceiling: 2100
Heat Index: 23°   Visibility: 10mi
Dew Point: 18°   Wind: 0mph
Humidity: 80%   Direction: NA
Pressure: 30.28"   Gusts: NA
Location:  44.73°N, 92.49°W
Report Text: KRGK 190831Z AUTO 00000KT 10SM BKN021 OVC080 M05/M08 A3028 RMK AO2
Loading
Personal Weather Stations






























Interactive Weather Map New forecast layout! Learn more

10-Day Weather Forecast

Advertisements
Track Severe Weather on mobile